createdAt,value
2022-11-04T00:04:04.704Z,12.0
2022-11-04T00:09:04.688Z,12.0
2022-11-04T00:14:04.686Z,11.9
2022-11-04T00:19:04.693Z,11.8
2022-11-04T00:24:04.688Z,11.7
2022-11-04T00:29:04.694Z,11.6
2022-11-04T00:34:04.704Z,11.4
2022-11-04T00:39:04.703Z,11.3
2022-11-04T00:44:04.714Z,11.3
2022-11-04T00:49:04.708Z,11.2
2022-11-04T00:54:04.709Z,11.2
2022-11-04T00:59:06.219Z,11.1
2022-11-04T01:04:04.718Z,11.1
2022-11-04T01:09:04.743Z,11.0
2022-11-04T01:14:04.729Z,10.9
2022-11-04T01:19:04.731Z,10.9
2022-11-04T01:24:04.733Z,10.8
2022-11-04T01:29:04.753Z,10.8
2022-11-04T01:34:04.748Z,10.8
2022-11-04T01:39:04.747Z,10.9
2022-11-04T01:44:04.749Z,11.0
2022-11-04T01:49:04.753Z,11.0
2022-11-04T01:54:04.752Z,11.1
2022-11-04T01:59:04.762Z,11.2
2022-11-04T02:04:04.762Z,11.3
2022-11-04T02:09:04.787Z,11.3
2022-11-04T02:14:04.764Z,11.3
2022-11-04T02:19:04.771Z,11.3
2022-11-04T02:24:04.780Z,11.2
2022-11-04T02:29:04.776Z,11.2
2022-11-04T02:34:04.784Z,11.1
2022-11-04T02:39:04.781Z,11.1
2022-11-04T02:44:04.782Z,11.0
2022-11-04T02:49:04.779Z,11.0
2022-11-04T02:54:04.791Z,10.8
2022-11-04T02:59:04.789Z,10.8
2022-11-04T03:04:04.787Z,10.7
2022-11-04T03:09:04.791Z,10.6
2022-11-04T03:14:04.799Z,10.6
2022-11-04T03:19:04.803Z,10.5
2022-11-04T03:24:04.798Z,10.5
2022-11-04T03:29:04.804Z,10.4
2022-11-04T03:34:04.906Z,10.3
2022-11-04T03:39:04.900Z,10.3
2022-11-04T03:44:04.931Z,10.2
2022-11-04T03:49:04.904Z,10.2
2022-11-04T03:54:04.913Z,10.1
2022-11-04T03:59:04.906Z,10.1
2022-11-04T04:04:05.095Z,10.0
2022-11-04T04:09:04.928Z,10.0
2022-11-04T04:14:04.922Z,10.0
2022-11-04T04:19:04.921Z,9.9
2022-11-04T04:24:04.924Z,9.9
2022-11-04T04:29:04.922Z,10.0
2022-11-04T04:34:04.937Z,10.0
2022-11-04T04:39:04.862Z,9.9
2022-11-04T04:44:04.935Z,9.9
2022-11-04T04:49:04.933Z,9.8
2022-11-04T04:54:04.944Z,9.8
2022-11-04T04:59:04.937Z,9.7
2022-11-04T05:04:04.945Z,9.7
2022-11-04T05:09:04.944Z,9.6
2022-11-04T05:14:04.948Z,9.5
2022-11-04T05:19:04.959Z,9.4
2022-11-04T05:24:04.959Z,9.3
2022-11-04T05:29:05.019Z,9.3
2022-11-04T05:34:04.961Z,9.3
2022-11-04T05:39:04.959Z,9.2
2022-11-04T05:44:04.961Z,9.1
2022-11-04T05:49:04.962Z,9.0
2022-11-04T05:54:04.971Z,9.0
2022-11-04T05:59:04.985Z,8.9
2022-11-04T06:04:04.974Z,8.9
2022-11-04T06:09:04.977Z,8.8
2022-11-04T06:14:04.958Z,8.8
2022-11-04T06:19:08.624Z,8.7
2022-11-04T06:24:04.975Z,8.7
2022-11-04T06:29:04.966Z,8.6
2022-11-04T06:34:04.965Z,8.6
2022-11-04T06:39:05.165Z,8.6
2022-11-04T06:44:04.980Z,8.6
2022-11-04T06:49:04.973Z,8.6
2022-11-04T06:54:04.977Z,8.6
2022-11-04T06:59:04.978Z,8.5
2022-11-04T07:04:04.980Z,8.5
2022-11-04T07:09:04.986Z,8.5
2022-11-04T07:14:04.992Z,8.5
2022-11-04T07:19:04.988Z,8.6
2022-11-04T07:24:05.005Z,8.8
2022-11-04T07:29:04.998Z,8.9
2022-11-04T07:34:05.006Z,9.1
2022-11-04T07:39:05.015Z,9.2
2022-11-04T07:44:05.010Z,9.2
2022-11-04T07:49:05.016Z,9.3
2022-11-04T07:54:05.019Z,9.5
2022-11-04T07:59:05.025Z,9.7
2022-11-04T08:04:05.027Z,9.8
2022-11-04T08:09:05.381Z,10.1
2022-11-04T08:14:05.026Z,10.3
2022-11-04T08:19:04.925Z,10.4
2022-11-04T08:24:05.031Z,10.6
2022-11-04T08:29:04.936Z,10.7
2022-11-04T08:34:04.941Z,10.8
2022-11-04T08:39:10.187Z,11.0
2022-11-04T08:44:04.949Z,11.1
2022-11-04T08:49:10.060Z,11.2
2022-11-04T08:54:04.957Z,11.3
2022-11-04T08:59:04.978Z,11.4
2022-11-04T09:04:05.063Z,11.6
2022-11-04T09:09:04.967Z,11.7
2022-11-04T09:14:04.973Z,11.8
2022-11-04T09:19:04.972Z,11.9
2022-11-04T09:24:04.979Z,12.0
2022-11-04T09:29:04.984Z,12.1
2022-11-04T09:34:04.986Z,12.3
2022-11-04T09:39:04.988Z,12.4
2022-11-04T09:44:05.000Z,12.5
2022-11-04T09:49:04.996Z,12.5
2022-11-04T09:54:05.001Z,12.6
2022-11-04T09:59:04.998Z,12.6
2022-11-04T10:04:05.000Z,12.6
2022-11-04T10:09:05.010Z,12.6
2022-11-04T10:14:05.014Z,12.7
2022-11-04T10:19:05.008Z,12.7
2022-11-04T10:24:05.011Z,12.7
2022-11-04T10:29:05.023Z,12.8
2022-11-04T10:34:05.018Z,12.9
2022-11-04T10:39:05.029Z,13.1
2022-11-04T10:44:05.030Z,13.2
2022-11-04T10:49:05.032Z,13.4
2022-11-04T10:54:05.050Z,13.6
2022-11-04T10:59:05.042Z,13.8
2022-11-04T11:04:05.057Z,14.1
2022-11-04T11:09:05.066Z,14.4
2022-11-04T11:14:05.060Z,14.7
2022-11-04T11:19:05.059Z,14.8
2022-11-04T11:24:05.091Z,14.8
2022-11-04T11:29:05.059Z,14.8
2022-11-04T11:34:05.068Z,14.9
2022-11-04T11:39:05.073Z,14.9
2022-11-04T11:44:05.067Z,14.9
2022-11-04T11:49:05.074Z,14.8
2022-11-04T11:54:05.077Z,14.8
2022-11-04T12:14:05.090Z,15.0
2022-11-04T12:19:05.101Z,15.0
2022-11-04T12:24:05.110Z,15.0
2022-11-04T12:29:05.094Z,15.0
2022-11-04T12:34:05.102Z,15.0
2022-11-04T12:39:05.099Z,15.0
2022-11-04T12:44:05.110Z,15.0
2022-11-04T12:49:07.343Z,15.0
2022-11-04T12:54:05.113Z,15.0
2022-11-04T12:59:05.119Z,14.9
2022-11-04T13:04:05.128Z,14.9
2022-11-04T13:09:05.129Z,14.8
2022-11-04T13:14:05.129Z,14.8
2022-11-04T13:19:05.126Z,14.7
2022-11-04T13:24:05.137Z,14.8
2022-11-04T13:29:08.992Z,14.8
2022-11-04T13:34:05.140Z,14.8
2022-11-04T13:39:05.134Z,14.9
2022-11-04T13:44:05.139Z,15.0
2022-11-04T13:49:05.151Z,15.1
2022-11-04T13:54:05.157Z,15.1
2022-11-04T13:59:05.232Z,14.9
2022-11-04T14:04:05.151Z,14.8
2022-11-04T14:09:05.156Z,14.6
2022-11-04T14:14:05.166Z,14.6
2022-11-04T14:19:05.158Z,14.5
2022-11-04T14:24:05.162Z,14.4
2022-11-04T14:29:05.163Z,14.3
2022-11-04T14:34:05.866Z,14.2
2022-11-04T14:39:05.161Z,14.1
2022-11-04T14:44:05.175Z,14.0
2022-11-04T14:49:05.167Z,14.0
2022-11-04T14:54:05.168Z,13.9
2022-11-04T14:59:05.181Z,13.9
2022-11-04T15:04:13.645Z,13.8
2022-11-04T15:09:05.196Z,13.8
2022-11-04T15:14:05.185Z,13.7
2022-11-04T15:19:05.186Z,13.7
2022-11-04T15:24:05.188Z,13.6
2022-11-04T15:29:05.186Z,13.6
2022-11-04T15:34:08.125Z,13.6
2022-11-04T15:39:05.199Z,13.6
2022-11-04T15:44:05.201Z,13.5
2022-11-04T15:49:05.198Z,13.5
2022-11-04T15:54:05.201Z,13.5
2022-11-04T15:59:05.204Z,13.4
2022-11-04T16:04:05.213Z,13.3
2022-11-04T16:09:05.228Z,13.3
2022-11-04T16:14:05.215Z,13.2
2022-11-04T16:19:05.226Z,13.1
2022-11-04T16:24:05.222Z,13.0
2022-11-04T16:29:05.221Z,12.9
2022-11-04T16:34:05.227Z,12.8
2022-11-04T16:39:05.227Z,12.7
2022-11-04T16:44:05.223Z,12.6
2022-11-04T16:49:05.250Z,12.5
2022-11-04T16:54:05.228Z,12.5
2022-11-04T16:59:05.232Z,12.4
2022-11-04T17:04:05.243Z,12.3
2022-11-04T17:09:05.240Z,12.2
2022-11-04T17:14:05.237Z,12.2
2022-11-04T17:19:05.266Z,12.1
2022-11-04T17:24:05.239Z,12.1
2022-11-04T17:29:05.240Z,12.1
2022-11-04T17:34:05.254Z,12.1
2022-11-04T17:39:05.252Z,12.1
2022-11-04T17:44:05.246Z,12.0
2022-11-04T17:49:05.252Z,11.9
2022-11-04T17:54:05.261Z,11.9
2022-11-04T17:59:05.290Z,11.8
2022-11-04T18:04:05.266Z,11.7
2022-11-04T18:09:05.275Z,11.6
2022-11-04T18:14:05.275Z,11.6
2022-11-04T18:19:05.268Z,11.5
2022-11-04T18:24:05.269Z,11.5
2022-11-04T18:29:05.280Z,11.4
2022-11-04T18:34:05.288Z,11.4
2022-11-04T18:39:05.278Z,11.3
2022-11-04T18:44:05.281Z,11.3
2022-11-04T18:49:05.282Z,11.2
2022-11-04T18:54:05.284Z,11.2
2022-11-04T18:59:05.285Z,11.2
2022-11-04T19:04:05.288Z,11.2
2022-11-04T19:09:25.259Z,11.2
2022-11-04T19:14:09.367Z,11.2
2022-11-04T19:19:05.296Z,11.2
2022-11-04T19:24:05.302Z,11.1
2022-11-04T19:29:05.299Z,11.1
2022-11-04T19:34:05.311Z,11.0
2022-11-04T19:39:05.309Z,11.0
2022-11-04T19:44:05.310Z,10.9
2022-11-04T19:49:05.309Z,10.8
2022-11-04T19:54:05.314Z,10.8
2022-11-04T19:59:06.368Z,10.7
2022-11-04T20:04:05.324Z,10.6
2022-11-04T20:09:05.640Z,10.5
2022-11-04T20:14:08.187Z,10.5
2022-11-04T20:19:05.354Z,10.4
2022-11-04T20:24:05.427Z,10.3
2022-11-04T20:29:05.432Z,10.3
2022-11-04T20:34:05.450Z,10.3
2022-11-04T20:39:05.369Z,10.2
2022-11-04T20:44:05.340Z,10.2
2022-11-04T20:49:05.339Z,10.2
2022-11-04T20:54:05.444Z,10.1
2022-11-04T20:59:05.448Z,10.1
2022-11-04T21:04:05.453Z,10.1
2022-11-04T21:09:05.454Z,10.0
2022-11-04T21:14:05.555Z,10.0
2022-11-04T21:19:05.460Z,10.0
2022-11-04T21:24:05.360Z,9.9
2022-11-04T21:29:05.483Z,9.9
2022-11-04T21:34:05.363Z,9.8
2022-11-04T21:39:05.467Z,9.8
2022-11-04T21:44:05.493Z,9.8
2022-11-04T21:49:05.483Z,9.7
2022-11-04T21:54:05.474Z,9.6
2022-11-04T21:59:05.483Z,9.6
2022-11-04T22:04:05.476Z,9.5
2022-11-04T22:09:05.477Z,9.5
2022-11-04T22:14:05.488Z,9.4
2022-11-04T22:19:05.489Z,9.4
2022-11-04T22:24:05.482Z,9.4
2022-11-04T22:29:05.493Z,9.5
2022-11-04T22:34:05.495Z,9.5
2022-11-04T22:39:05.513Z,9.6
2022-11-04T22:44:05.496Z,9.6
2022-11-04T22:49:05.500Z,9.5
2022-11-04T22:54:08.500Z,9.5
2022-11-04T22:59:05.507Z,9.5
2022-11-04T23:04:05.586Z,9.4
2022-11-04T23:09:05.503Z,9.4
2022-11-04T23:14:05.513Z,9.3
2022-11-04T23:19:05.514Z,9.3
2022-11-04T23:24:05.528Z,9.3
2022-11-04T23:29:05.517Z,9.2
2022-11-04T23:34:05.522Z,9.2
2022-11-04T23:39:05.524Z,9.2
2022-11-04T23:44:05.529Z,9.2
2022-11-04T23:49:05.529Z,9.2
2022-11-04T23:54:05.531Z,9.2
2022-11-04T23:59:05.540Z,9.2
